createdAt,value
2022-12-18T00:01:04.001Z,17.17
2022-12-18T00:03:30.370Z,16.17
2022-12-18T00:05:56.729Z,16.85
2022-12-18T00:08:23.222Z,16.33
2022-12-18T00:10:49.577Z,15.00
2022-12-18T00:13:15.930Z,14.48
2022-12-18T00:15:42.267Z,12.93
2022-12-18T00:18:08.656Z,13.45
2022-12-18T00:20:39.143Z,13.25
2022-12-18T00:23:06.339Z,13.13
2022-12-18T00:25:36.620Z,13.13
2022-12-18T00:28:04.129Z,13.23
2022-12-18T00:30:30.673Z,13.60
2022-12-18T00:32:58.088Z,12.43
2022-12-18T00:35:24.438Z,12.20
2022-12-18T00:37:50.781Z,12.50
2022-12-18T00:40:17.135Z,12.38
2022-12-18T00:42:58.493Z,12.00
2022-12-18T00:45:34.024Z,12.82
2022-12-18T00:48:00.428Z,12.68
2022-12-18T00:50:26.852Z,12.38
2022-12-18T00:52:53.171Z,12.60
2022-12-18T00:55:19.688Z,13.48
2022-12-18T00:57:46.045Z,12.85
2022-12-18T01:00:15.093Z,13.35
2022-12-18T01:02:41.650Z,13.32
2022-12-18T01:05:08.938Z,12.35
2022-12-18T01:07:35.321Z,11.57
2022-12-18T01:10:01.722Z,12.32
2022-12-18T01:12:28.076Z,11.88
2022-12-18T01:14:54.404Z,12.13
2022-12-18T01:17:20.760Z,12.43
2022-12-18T01:19:47.321Z,12.48
2022-12-18T01:22:13.661Z,12.60
2022-12-18T01:24:40.021Z,12.32
2022-12-18T01:27:06.363Z,13.25
2022-12-18T01:29:32.705Z,12.98
2022-12-18T01:31:59.152Z,13.10
2022-12-18T01:34:25.586Z,13.02
2022-12-18T01:36:54.597Z,12.50
2022-12-18T01:39:20.980Z,13.25
2022-12-18T01:42:02.578Z,13.00
2022-12-18T01:44:47.677Z,12.95
2022-12-18T01:47:37.390Z,13.27
2022-12-18T01:50:23.981Z,12.85
2022-12-18T01:52:59.143Z,12.75
2022-12-18T01:55:27.164Z,13.35
2022-12-18T02:00:20.852Z,13.02
2022-12-18T02:02:47.730Z,14.52
2022-12-18T02:05:17.435Z,14.45
2022-12-18T02:08:06.785Z,14.88
2022-12-18T02:10:51.734Z,13.75
2022-12-18T02:13:28.367Z,12.70
2022-12-18T02:15:58.261Z,13.18
2022-12-18T02:18:36.115Z,13.13
2022-12-18T02:21:02.421Z,14.32
2022-12-18T02:23:39.501Z,14.50
2022-12-18T02:26:08.890Z,13.32
2022-12-18T02:28:43.853Z,13.38
2022-12-18T02:31:15.145Z,13.55
2022-12-18T02:33:42.348Z,11.15
2022-12-18T02:36:09.561Z,9.75
2022-12-18T02:38:36.097Z,11.57
2022-12-18T02:41:03.103Z,11.27
2022-12-18T02:43:30.698Z,10.30
2022-12-18T02:45:58.723Z,11.63
2022-12-18T02:51:07.939Z,9.82
2022-12-18T02:53:43.318Z,10.57
2022-12-18T02:56:12.658Z,11.25
2022-12-18T02:58:41.965Z,12.05
2022-12-18T03:01:17.489Z,13.15
2022-12-18T03:03:43.934Z,11.07
2022-12-18T03:06:13.743Z,12.07
2022-12-18T03:08:45.464Z,11.73
2022-12-18T03:11:13.073Z,11.65
2022-12-18T03:13:41.788Z,11.50
2022-12-18T03:16:11.305Z,11.75
2022-12-18T03:18:39.820Z,11.25
2022-12-18T03:21:07.060Z,10.05
2022-12-18T03:23:35.702Z,12.10
2022-12-18T03:26:07.419Z,12.27
2022-12-18T03:28:36.066Z,14.68
2022-12-18T03:31:02.815Z,14.88
2022-12-18T03:33:36.379Z,14.38
2022-12-18T03:36:03.032Z,15.00
2022-12-18T03:38:29.406Z,13.63
2022-12-18T03:41:14.116Z,12.85
2022-12-18T03:43:40.761Z,11.82
2022-12-18T03:46:20.465Z,11.10
2022-12-18T03:48:51.847Z,12.02
2022-12-18T03:51:24.074Z,11.18
2022-12-18T03:53:55.945Z,11.07
2022-12-18T03:56:22.617Z,9.35
2022-12-18T03:58:49.736Z,8.40
2022-12-18T04:01:17.436Z,9.13
2022-12-18T04:03:45.723Z,9.02
2022-12-18T04:06:12.728Z,8.85
2022-12-18T04:08:40.931Z,8.73
2022-12-18T04:11:07.278Z,8.93
2022-12-18T04:13:35.053Z,9.13
2022-12-18T04:16:02.299Z,9.18
2022-12-18T04:18:28.708Z,9.65
2022-12-18T04:20:55.072Z,10.73
2022-12-18T04:23:22.161Z,9.50
2022-12-18T04:25:49.002Z,10.75
2022-12-18T04:28:15.393Z,10.98
2022-12-18T04:30:41.852Z,10.73
2022-12-18T04:33:11.881Z,9.98
2022-12-18T04:35:38.317Z,10.07
2022-12-18T04:38:04.678Z,10.73
2022-12-18T04:40:32.491Z,10.10
2022-12-18T04:42:58.863Z,10.50
2022-12-18T04:45:25.217Z,10.85
2022-12-18T04:47:51.584Z,11.50
2022-12-18T04:50:18.114Z,10.85
2022-12-18T04:52:44.461Z,10.60
2022-12-18T04:55:10.900Z,9.90
2022-12-18T04:57:37.223Z,9.55
2022-12-18T05:00:03.955Z,10.07
2022-12-18T05:02:30.402Z,13.73
2022-12-18T05:04:56.811Z,10.35
2022-12-18T05:07:23.200Z,11.15
2022-12-18T05:09:49.562Z,10.88
2022-12-18T05:12:15.887Z,11.48
2022-12-18T05:14:42.390Z,11.00
2022-12-18T05:17:08.780Z,9.70
2022-12-18T05:19:35.199Z,9.32
2022-12-18T05:22:02.400Z,9.00
2022-12-18T05:24:28.764Z,8.13
2022-12-18T05:26:55.149Z,8.13
2022-12-18T05:29:21.524Z,7.40
2022-12-18T05:31:47.948Z,7.43
2022-12-18T05:34:14.412Z,7.40
2022-12-18T05:36:40.954Z,7.82
2022-12-18T05:39:07.877Z,7.75
2022-12-18T05:41:34.433Z,7.20
2022-12-18T05:44:01.140Z,7.40
2022-12-18T05:46:27.523Z,7.53
2022-12-18T05:48:53.927Z,7.82
2022-12-18T05:51:21.886Z,6.80
2022-12-18T05:56:18.988Z,7.60
2022-12-18T05:58:45.746Z,7.72
2022-12-18T06:01:12.039Z,7.60
2022-12-18T06:03:38.525Z,7.93
2022-12-18T06:06:05.083Z,8.48
2022-12-18T06:08:31.752Z,8.45
2022-12-18T06:10:58.199Z,8.18
2022-12-18T06:13:24.515Z,8.77
2022-12-18T06:15:50.882Z,8.57
2022-12-18T06:18:17.212Z,8.75
2022-12-18T06:20:43.863Z,8.95
2022-12-18T06:23:10.417Z,9.55
2022-12-18T06:25:38.529Z,9.80
2022-12-18T06:30:31.083Z,9.75
2022-12-18T06:32:57.645Z,10.63
2022-12-18T06:35:24.584Z,10.73
2022-12-18T06:37:50.950Z,10.77
2022-12-18T06:40:17.661Z,11.63
2022-12-18T06:42:44.013Z,10.57
2022-12-18T06:45:10.590Z,10.65
2022-12-18T06:47:36.996Z,10.52
2022-12-18T06:50:03.567Z,10.80
2022-12-18T06:52:32.302Z,10.90
2022-12-18T06:54:58.805Z,10.93
2022-12-18T06:57:25.169Z,10.57
2022-12-18T06:59:51.596Z,10.48
2022-12-18T07:02:18.609Z,10.07
2022-12-18T07:04:44.988Z,10.55
2022-12-18T07:07:11.305Z,10.80
2022-12-18T07:09:37.659Z,10.95
2022-12-18T07:12:05.900Z,10.88
2022-12-18T07:14:32.227Z,10.75
2022-12-18T07:16:58.706Z,10.60
2022-12-18T07:19:26.447Z,10.38
2022-12-18T07:21:52.945Z,10.32
2022-12-18T07:24:19.266Z,9.23
2022-12-18T07:26:48.667Z,10.05
2022-12-18T07:29:15.094Z,8.57
2022-12-18T07:31:41.601Z,8.80
2022-12-18T07:34:11.475Z,8.38
2022-12-18T07:36:37.819Z,9.05
2022-12-18T07:39:04.157Z,8.15
2022-12-18T07:41:30.533Z,8.25
2022-12-18T07:43:56.865Z,8.30
2022-12-18T07:46:23.552Z,8.20
2022-12-18T07:48:50.441Z,8.13
2022-12-18T07:51:17.238Z,9.90
2022-12-18T07:53:44.790Z,8.52
2022-12-18T07:56:29.512Z,8.65
2022-12-18T07:58:56.390Z,8.93
2022-12-18T08:01:22.809Z,8.68
2022-12-18T08:03:49.909Z,8.50
2022-12-18T08:06:18.450Z,8.45
2022-12-18T08:08:44.789Z,9.07
2022-12-18T08:11:11.088Z,9.30
2022-12-18T08:13:37.606Z,9.27
2022-12-18T08:16:06.085Z,8.68
2022-12-18T08:18:36.463Z,9.43
2022-12-18T08:21:12.493Z,9.50
2022-12-18T08:23:42.635Z,9.25
2022-12-18T08:26:09.684Z,9.40
2022-12-18T08:28:36.029Z,9.55
2022-12-18T08:31:02.475Z,10.02
2022-12-18T08:35:56.854Z,10.52
2022-12-18T08:38:24.209Z,10.85
2022-12-18T08:40:50.516Z,10.65
2022-12-18T08:43:35.644Z,11.80
2022-12-18T08:46:02.076Z,10.18
2022-12-18T08:48:28.461Z,9.98
2022-12-18T08:50:58.946Z,11.05
2022-12-18T08:53:25.514Z,11.80
2022-12-18T08:55:51.848Z,11.63
2022-12-18T08:58:18.313Z,11.13
2022-12-18T09:00:45.093Z,11.48
2022-12-18T09:03:12.878Z,12.13
2022-12-18T09:05:39.380Z,11.80
2022-12-18T09:08:05.724Z,12.02
2022-12-18T09:10:32.266Z,12.63
2022-12-18T09:12:58.832Z,13.10
2022-12-18T09:15:25.185Z,12.93
2022-12-18T09:17:51.536Z,13.38
2022-12-18T09:20:18.314Z,12.15
2022-12-18T09:22:44.713Z,13.07
2022-12-18T09:25:11.145Z,13.30
2022-12-18T09:27:37.554Z,12.85
2022-12-18T09:30:04.709Z,12.75
2022-12-18T09:32:31.057Z,13.40
2022-12-18T09:34:57.353Z,13.88
2022-12-18T09:37:23.705Z,14.60
2022-12-18T09:39:50.020Z,13.90
2022-12-18T09:42:21.441Z,14.82
2022-12-18T09:44:54.917Z,13.80
2022-12-18T09:47:29.825Z,13.45
2022-12-18T09:49:59.056Z,14.57
2022-12-18T09:52:25.372Z,14.10
2022-12-18T09:54:55.912Z,14.18
2022-12-18T09:57:23.372Z,13.05
2022-12-18T10:00:09.980Z,14.65
2022-12-18T10:02:36.410Z,14.65
2022-12-18T10:05:02.830Z,13.68
2022-12-18T10:07:37.513Z,13.98
2022-12-18T10:10:23.843Z,14.65
2022-12-18T10:13:04.701Z,14.52
2022-12-18T10:15:51.706Z,14.63
2022-12-18T10:18:21.893Z,14.48
2022-12-18T10:21:01.067Z,15.63
2022-12-18T10:23:30.416Z,15.85
2022-12-18T10:26:02.557Z,14.32
2022-12-18T10:28:30.508Z,15.95
2022-12-18T10:30:56.876Z,16.90
2022-12-18T10:33:24.521Z,16.27
2022-12-18T10:35:54.921Z,16.13
2022-12-18T10:38:26.619Z,16.70
2022-12-18T10:40:52.945Z,16.13
2022-12-18T10:43:24.013Z,15.45
2022-12-18T10:46:14.067Z,16.27
2022-12-18T10:48:40.720Z,15.60
2022-12-18T10:51:12.102Z,15.50
2022-12-18T10:53:41.225Z,16.08
2022-12-18T10:56:07.778Z,16.15
2022-12-18T10:58:35.386Z,16.30
2022-12-18T11:01:13.034Z,15.73
2022-12-18T11:03:41.188Z,16.45
2022-12-18T11:06:10.554Z,17.13
2022-12-18T11:08:37.685Z,16.48
2022-12-18T11:11:05.118Z,17.33
2022-12-18T11:13:32.488Z,15.55
2022-12-18T11:15:59.373Z,16.65
2022-12-18T11:18:35.936Z,16.98
2022-12-18T11:21:09.708Z,16.17
2022-12-18T11:23:37.165Z,16.13
2022-12-18T11:26:04.992Z,17.90
2022-12-18T11:28:46.520Z,20.40
2022-12-18T11:31:16.055Z,24.85
2022-12-18T11:34:04.869Z,25.60
2022-12-18T11:36:37.332Z,25.92
2022-12-18T11:39:11.880Z,27.70
2022-12-18T11:42:05.840Z,24.02
2022-12-18T11:44:52.459Z,20.38
2022-12-18T11:47:26.512Z,17.40
2022-12-18T11:49:53.694Z,18.20
2022-12-18T11:52:22.580Z,18.73
2022-12-18T11:54:52.724Z,18.05
2022-12-18T11:57:22.213Z,18.95
2022-12-18T11:59:48.521Z,18.95
2022-12-18T12:02:17.959Z,17.23
2022-12-18T12:05:07.361Z,15.85
2022-12-18T12:07:56.328Z,15.75
2022-12-18T12:10:35.950Z,16.15
2022-12-18T12:13:20.892Z,15.55
2022-12-18T12:16:16.833Z,14.57
2022-12-18T12:18:52.172Z,14.23
2022-12-18T12:21:22.281Z,14.95
2022-12-18T12:23:48.580Z,15.27
2022-12-18T12:26:17.647Z,13.98
2022-12-18T12:28:44.144Z,12.90
2022-12-18T12:31:13.372Z,13.43
2022-12-18T12:33:43.170Z,12.95
2022-12-18T12:36:27.544Z,12.52
2022-12-18T12:38:56.597Z,12.35
2022-12-18T12:41:43.183Z,11.82
2022-12-18T12:46:40.406Z,10.68
2022-12-18T12:49:20.340Z,10.30
2022-12-18T12:51:54.970Z,10.30
2022-12-18T12:54:24.220Z,11.13
2022-12-18T12:57:02.527Z,10.65
2022-12-18T12:59:32.060Z,8.32
2022-12-18T13:02:03.616Z,9.52
2022-12-18T13:04:30.611Z,8.90
2022-12-18T13:06:57.096Z,7.82
2022-12-18T13:09:23.960Z,7.70
2022-12-18T13:12:08.702Z,7.05
2022-12-18T13:14:36.497Z,6.45
2022-12-18T13:17:18.476Z,6.38
2022-12-18T13:19:45.202Z,5.68
2022-12-18T13:22:24.601Z,5.68
2022-12-18T13:24:51.694Z,5.53
2022-12-18T13:27:37.366Z,5.85
2022-12-18T13:30:19.157Z,4.82
2022-12-18T13:32:45.709Z,4.90
2022-12-18T13:35:19.715Z,4.03
2022-12-18T13:37:53.058Z,4.13
2022-12-18T13:40:37.947Z,3.17
2022-12-18T13:43:14.972Z,3.67
2022-12-18T13:45:43.589Z,3.37
2022-12-18T13:48:18.270Z,2.80
2022-12-18T13:50:49.109Z,2.72
2022-12-18T13:53:28.471Z,2.47
2022-12-18T13:55:55.373Z,2.83
2022-12-18T13:58:21.790Z,2.25
2022-12-18T14:00:49.107Z,2.90
2022-12-18T14:03:22.403Z,2.25
2022-12-18T14:05:54.450Z,2.55
2022-12-18T14:08:21.438Z,1.95
2022-12-18T14:10:49.985Z,2.10
2022-12-18T14:13:20.567Z,2.55
2022-12-18T14:15:48.831Z,2.17
2022-12-18T14:18:15.149Z,2.70
2022-12-18T14:20:46.560Z,2.80
2022-12-18T14:23:34.250Z,2.33
2022-12-18T14:26:05.699Z,2.45
2022-12-18T14:28:32.651Z,2.70
2022-12-18T14:30:59.172Z,2.28
2022-12-18T14:33:27.173Z,2.33
2022-12-18T14:38:26.087Z,2.10
2022-12-18T14:40:56.829Z,2.28
2022-12-18T14:43:23.699Z,2.22
2022-12-18T14:45:50.797Z,2.25
2022-12-18T14:48:26.232Z,2.00
2022-12-18T14:50:57.081Z,2.20
2022-12-18T14:53:54.410Z,2.03
2022-12-18T14:56:22.971Z,1.80
2022-12-18T15:01:19.743Z,2.10
2022-12-18T15:03:46.377Z,1.80
2022-12-18T15:06:17.104Z,1.60
2022-12-18T15:08:43.568Z,2.00
2022-12-18T15:11:26.576Z,1.55
2022-12-18T15:13:52.941Z,1.67
2022-12-18T15:16:19.505Z,1.30
2022-12-18T15:18:47.095Z,1.63
2022-12-18T15:21:17.364Z,1.50
2022-12-18T15:23:48.291Z,1.73
2022-12-18T15:26:16.100Z,1.67
2022-12-18T15:29:00.950Z,1.98
2022-12-18T15:31:31.382Z,2.13
2022-12-18T15:33:59.783Z,1.77
2022-12-18T15:36:29.083Z,1.77
2022-12-18T15:39:04.929Z,1.77
2022-12-18T15:41:32.698Z,1.73
2022-12-18T15:44:00.527Z,1.60
2022-12-18T15:46:27.684Z,1.77
2022-12-18T15:48:59.758Z,1.90
2022-12-18T15:51:30.711Z,1.70
2022-12-18T15:53:57.829Z,1.80
2022-12-18T15:56:42.806Z,1.90
2022-12-18T15:59:13.682Z,2.60
2022-12-18T16:01:42.699Z,1.95
2022-12-18T16:04:11.548Z,2.03
2022-12-18T16:07:05.363Z,2.25
2022-12-18T16:09:26.542Z,2.00
2022-12-18T16:11:53.176Z,2.10
2022-12-18T16:14:23.974Z,2.30
2022-12-18T16:16:51.673Z,2.35
2022-12-18T16:19:18.501Z,2.60
2022-12-18T16:21:45.007Z,2.42
2022-12-18T16:24:16.878Z,2.45
2022-12-18T16:26:43.755Z,2.65
2022-12-18T16:29:10.501Z,3.35
2022-12-18T16:32:16.460Z,2.95
2022-12-18T16:38:04.639Z,3.03
2022-12-18T16:40:32.449Z,3.40
2022-12-18T16:42:58.751Z,3.28
2022-12-18T16:45:33.981Z,3.40
2022-12-18T16:48:00.354Z,3.20
2022-12-18T16:50:26.696Z,3.38
2022-12-18T16:53:11.992Z,3.13
2022-12-18T16:55:38.379Z,3.40
2022-12-18T16:58:04.707Z,2.95
2022-12-18T17:00:31.123Z,2.80
2022-12-18T17:02:57.603Z,3.30
2022-12-18T17:05:24.019Z,3.05
2022-12-18T17:07:50.372Z,3.05
2022-12-18T17:10:16.751Z,3.22
2022-12-18T17:12:43.456Z,3.15
2022-12-18T17:15:10.356Z,3.30
2022-12-18T17:17:36.706Z,3.00
2022-12-18T17:20:05.709Z,3.40
2022-12-18T17:22:32.031Z,3.17
2022-12-18T17:25:15.583Z,3.50
2022-12-18T17:27:41.910Z,3.47
2022-12-18T17:30:08.625Z,3.33
2022-12-18T17:32:34.969Z,4.07
2022-12-18T17:35:06.832Z,3.88
2022-12-18T17:37:33.607Z,3.63
2022-12-18T17:39:59.976Z,3.50
2022-12-18T17:42:26.385Z,3.55
2022-12-18T17:51:43.250Z,3.25
2022-12-18T17:54:10.451Z,3.03
2022-12-18T17:56:36.889Z,3.93
2022-12-18T17:59:04.063Z,3.25
2022-12-18T18:01:30.524Z,3.20
2022-12-18T18:03:57.814Z,3.40
2022-12-18T18:06:24.339Z,3.58
2022-12-18T18:08:51.117Z,3.25
2022-12-18T18:11:38.755Z,3.40
2022-12-18T18:14:13.165Z,2.90
2022-12-18T18:20:01.313Z,2.72
2022-12-18T18:22:27.687Z,2.55
2022-12-18T18:25:32.172Z,2.92
2022-12-18T18:27:58.689Z,2.47
2022-12-18T18:30:25.002Z,2.30
2022-12-18T18:32:51.460Z,2.60
2022-12-18T18:38:05.736Z,2.13
2022-12-18T18:40:32.049Z,2.13
2022-12-18T18:42:58.433Z,2.30
2022-12-18T18:45:24.870Z,2.70
2022-12-18T18:47:51.263Z,2.15
2022-12-18T18:50:19.392Z,3.20
2022-12-18T18:52:45.776Z,2.25
2022-12-18T18:55:13.694Z,2.70
2022-12-18T18:57:50.423Z,2.83
2022-12-18T19:00:17.049Z,2.70
2022-12-18T19:02:43.530Z,2.70
2022-12-18T19:05:13.260Z,2.17
2022-12-18T19:07:39.595Z,2.28
2022-12-18T19:10:06.242Z,2.10
2022-12-18T19:12:51.386Z,2.13
2022-12-18T19:15:17.724Z,1.85
2022-12-18T19:17:44.824Z,2.20
2022-12-18T19:20:13.720Z,2.92
2022-12-18T19:22:40.108Z,3.13
2022-12-18T19:25:06.727Z,2.42
2022-12-18T19:27:33.142Z,2.08
2022-12-18T19:29:59.470Z,1.98
2022-12-18T19:32:25.891Z,1.70
2022-12-18T19:34:52.962Z,1.88
2022-12-18T19:37:19.501Z,2.30
2022-12-18T19:39:46.025Z,2.10
2022-12-18T19:42:12.801Z,2.13
2022-12-18T19:44:39.796Z,2.73
2022-12-18T19:47:06.144Z,2.50
2022-12-18T19:49:32.690Z,2.08
2022-12-18T19:51:59.118Z,2.20
2022-12-18T19:54:25.707Z,1.80
2022-12-18T19:56:53.373Z,1.60
2022-12-18T19:59:19.752Z,1.67
2022-12-18T20:01:46.118Z,1.73
2022-12-18T20:04:12.614Z,1.83
2022-12-18T20:06:49.438Z,1.77
2022-12-18T20:09:16.299Z,1.73
2022-12-18T20:11:43.054Z,1.80
2022-12-18T20:14:13.616Z,2.25
2022-12-18T20:16:40.185Z,1.73
2022-12-18T20:19:06.965Z,1.10
2022-12-18T20:21:33.684Z,1.38
2022-12-18T20:24:01.242Z,1.20
2022-12-18T20:26:27.984Z,0.80
2022-12-18T20:28:54.863Z,0.85
2022-12-18T20:31:21.317Z,1.20
2022-12-18T20:33:49.932Z,1.08
2022-12-18T20:36:22.398Z,0.93
2022-12-18T20:38:50.029Z,0.60
2022-12-18T20:41:17.353Z,0.70
2022-12-18T20:43:44.513Z,0.70
2022-12-18T20:46:12.281Z,0.70
2022-12-18T20:48:41.956Z,0.50
2022-12-18T20:51:10.006Z,0.77
2022-12-18T20:53:36.844Z,0.85
2022-12-18T20:56:09.005Z,1.10
2022-12-18T20:58:36.072Z,1.40
2022-12-18T21:01:06.267Z,1.33
2022-12-18T21:03:32.850Z,1.90
2022-12-18T21:05:59.206Z,1.50
2022-12-18T21:08:25.534Z,2.00
2022-12-18T21:10:51.924Z,2.22
2022-12-18T21:13:22.509Z,2.35
2022-12-18T21:15:48.886Z,2.00
2022-12-18T21:18:15.251Z,1.83
2022-12-18T21:20:41.601Z,2.35
2022-12-18T21:23:16.330Z,2.17
2022-12-18T21:25:43.712Z,2.67
2022-12-18T21:28:11.661Z,2.30
2022-12-18T21:30:38.194Z,2.45
2022-12-18T21:33:04.602Z,2.15
2022-12-18T21:35:31.021Z,1.60
2022-12-18T21:37:58.569Z,1.33
2022-12-18T21:40:25.041Z,1.55
2022-12-18T21:43:10.440Z,2.00
2022-12-18T21:45:42.436Z,2.28
2022-12-18T21:48:08.801Z,2.63
2022-12-18T21:50:35.137Z,2.78
2022-12-18T21:53:01.480Z,2.90
2022-12-18T21:55:27.832Z,2.90
2022-12-18T21:57:54.202Z,3.08
2022-12-18T22:00:20.620Z,2.25
2022-12-18T22:02:48.172Z,2.00
2022-12-18T22:07:41.307Z,2.35
2022-12-18T22:10:07.864Z,1.88
2022-12-18T22:12:43.092Z,1.58
2022-12-18T22:15:11.050Z,1.83
2022-12-18T22:17:39.072Z,2.70
2022-12-18T22:20:05.643Z,1.55
2022-12-18T22:22:31.952Z,2.03
2022-12-18T22:24:58.277Z,2.40
2022-12-18T22:27:24.638Z,1.70
2022-12-18T22:30:05.944Z,1.77
2022-12-18T22:32:33.186Z,2.20
2022-12-18T22:35:05.801Z,1.88
2022-12-18T22:37:34.642Z,2.28
2022-12-18T22:40:03.110Z,1.80
2022-12-18T22:42:29.949Z,1.77
2022-12-18T22:44:56.273Z,1.60
2022-12-18T22:47:26.527Z,1.30
2022-12-18T22:49:55.648Z,1.52
2022-12-18T22:52:22.014Z,1.50
2022-12-18T22:54:50.651Z,1.92
2022-12-18T22:57:19.446Z,1.20
2022-12-18T22:59:45.756Z,1.65
2022-12-18T23:02:12.194Z,1.50
2022-12-18T23:04:38.604Z,1.55
2022-12-18T23:07:05.395Z,1.13
2022-12-18T23:09:31.849Z,1.20
2022-12-18T23:11:58.171Z,1.23
2022-12-18T23:14:24.596Z,0.60
2022-12-18T23:16:52.273Z,0.82
2022-12-18T23:19:19.788Z,0.70
2022-12-18T23:21:46.151Z,0.60
2022-12-18T23:24:12.528Z,0.82
2022-12-18T23:26:38.883Z,0.50
2022-12-18T23:29:05.279Z,0.60
2022-12-18T23:31:33.118Z,0.47
2022-12-18T23:36:25.844Z,0.50
2022-12-18T23:38:53.680Z,0.30
2022-12-18T23:43:46.312Z,0.57
2022-12-18T23:46:17.401Z,0.43
2022-12-18T23:48:44.103Z,0.90
2022-12-18T23:51:11.016Z,1.00
2022-12-18T23:53:37.977Z,0.65
2022-12-18T23:56:08.458Z,1.13
2022-12-18T23:58:35.480Z,0.70
